createdAt,value
2022-11-15T00:00:09.304Z,10.40
2022-11-15T00:01:30.127Z,10.40
2022-11-15T00:02:51.181Z,10.40
2022-11-15T00:04:12.033Z,10.40
2022-11-15T00:05:36.958Z,10.40
2022-11-15T00:06:59.121Z,10.40
2022-11-15T00:08:22.273Z,10.40
2022-11-15T00:09:46.057Z,10.40
2022-11-15T00:11:07.748Z,10.30
2022-11-15T00:12:29.844Z,10.30
2022-11-15T00:13:50.478Z,10.30
2022-11-15T00:15:11.220Z,10.30
2022-11-15T00:16:31.599Z,10.30
2022-11-15T00:17:52.392Z,10.20
2022-11-15T00:19:13.219Z,10.20
2022-11-15T00:20:36.831Z,10.20
2022-11-15T00:21:57.706Z,10.10
2022-11-15T00:23:18.661Z,10.10
2022-11-15T00:24:39.646Z,10.10
2022-11-15T00:26:00.808Z,10.10
2022-11-15T00:27:21.828Z,10.10
2022-11-15T00:28:43.484Z,10.10
2022-11-15T00:30:04.417Z,10.00
2022-11-15T00:31:25.485Z,10.00
2022-11-15T00:32:46.003Z,10.00
2022-11-15T00:34:06.804Z,10.00
2022-11-15T00:35:28.164Z,10.00
2022-11-15T00:36:48.831Z,10.10
2022-11-15T00:38:09.281Z,10.10
2022-11-15T00:39:29.894Z,10.10
2022-11-15T00:40:50.863Z,10.20
2022-11-15T00:42:12.002Z,10.20
2022-11-15T00:43:34.687Z,10.20
2022-11-15T00:44:55.269Z,10.10
2022-11-15T00:46:16.390Z,10.10
2022-11-15T00:47:37.205Z,10.10
2022-11-15T00:48:58.040Z,10.10
2022-11-15T00:50:19.181Z,10.00
2022-11-15T00:51:39.809Z,10.10
2022-11-15T00:53:00.718Z,10.10
2022-11-15T00:54:21.228Z,10.00
2022-11-15T00:55:42.386Z,10.00
2022-11-15T00:57:03.081Z,10.00
2022-11-15T00:58:23.917Z,10.00
2022-11-15T00:59:44.499Z,10.00
2022-11-15T01:01:14.526Z,10.00
2022-11-15T01:02:35.756Z,10.00
2022-11-15T01:04:01.090Z,10.00
2022-11-15T01:05:22.582Z,10.00
2022-11-15T01:06:44.227Z,10.00
2022-11-15T01:08:06.268Z,10.00
2022-11-15T01:09:28.173Z,10.00
2022-11-15T01:10:51.631Z,10.10
2022-11-15T01:12:13.621Z,10.10
2022-11-15T01:13:37.008Z,10.10
2022-11-15T01:14:58.678Z,10.10
2022-11-15T01:16:19.753Z,10.10
2022-11-15T01:17:40.503Z,10.10
2022-11-15T01:19:01.452Z,10.10
2022-11-15T01:20:21.899Z,10.10
2022-11-15T01:21:42.710Z,10.00
2022-11-15T01:23:03.614Z,10.00
2022-11-15T01:24:24.357Z,10.00
2022-11-15T01:25:45.278Z,10.00
2022-11-15T01:27:05.674Z,10.00
2022-11-15T01:28:26.774Z,10.00
2022-11-15T01:29:47.332Z,10.00
2022-11-15T01:31:15.050Z,10.00
2022-11-15T01:32:36.000Z,10.00
2022-11-15T01:33:56.380Z,10.00
2022-11-15T01:35:17.325Z,10.10
2022-11-15T01:36:38.278Z,10.10
2022-11-15T01:37:58.942Z,10.10
2022-11-15T01:39:19.358Z,10.20
2022-11-15T01:40:40.308Z,10.20
2022-11-15T01:42:01.663Z,10.30
2022-11-15T01:43:25.632Z,10.30
2022-11-15T01:44:51.661Z,10.40
2022-11-15T01:46:35.858Z,10.40
2022-11-15T01:47:57.088Z,10.50
2022-11-15T01:49:21.487Z,10.50
2022-11-15T01:50:42.501Z,10.40
2022-11-15T01:52:06.299Z,10.40
2022-11-15T01:53:28.679Z,10.40
2022-11-15T01:54:54.881Z,10.40
2022-11-15T01:56:20.769Z,10.30
2022-11-15T01:57:43.976Z,10.30
2022-11-15T01:59:07.336Z,10.30
2022-11-15T02:00:29.332Z,10.30
2022-11-15T02:01:50.968Z,10.30
2022-11-15T02:03:12.030Z,10.30
2022-11-15T02:04:47.738Z,10.30
2022-11-15T02:06:10.682Z,10.20
2022-11-15T02:07:35.331Z,10.20
2022-11-15T02:08:57.542Z,10.20
2022-11-15T02:10:24.679Z,10.20
2022-11-15T02:11:46.662Z,10.20
2022-11-15T02:13:07.302Z,10.10
2022-11-15T02:14:30.704Z,10.10
2022-11-15T02:16:11.687Z,10.10
2022-11-15T02:17:44.520Z,10.00
2022-11-15T02:19:31.034Z,10.00
2022-11-15T02:21:37.471Z,9.90
2022-11-15T02:23:26.335Z,9.90
2022-11-15T02:25:16.880Z,9.90
2022-11-15T02:27:11.540Z,10.00
2022-11-15T02:29:00.760Z,10.00
2022-11-15T02:30:39.561Z,9.90
2022-11-15T02:32:05.693Z,9.90
2022-11-15T02:34:23.522Z,9.90
2022-11-15T02:36:01.040Z,9.90
2022-11-15T02:37:50.345Z,10.00
2022-11-15T02:39:35.482Z,10.00
2022-11-15T02:41:07.631Z,10.00
2022-11-15T02:42:54.791Z,10.10
2022-11-15T02:44:24.986Z,10.10
2022-11-15T02:46:08.577Z,10.10
2022-11-15T02:47:32.756Z,10.10
2022-11-15T02:48:53.828Z,10.10
2022-11-15T02:50:19.510Z,10.10
2022-11-15T02:51:41.123Z,10.10
2022-11-15T02:53:02.042Z,10.20
2022-11-15T02:54:27.971Z,10.20
2022-11-15T02:55:52.230Z,10.20
2022-11-15T02:57:19.263Z,10.20
2022-11-15T02:58:54.315Z,10.30
2022-11-15T03:00:20.715Z,10.30
2022-11-15T03:02:10.831Z,10.30
2022-11-15T03:03:43.378Z,10.40
2022-11-15T03:05:36.001Z,10.40
2022-11-15T03:07:11.783Z,10.50
2022-11-15T03:09:01.548Z,10.50
2022-11-15T03:10:33.713Z,10.50
2022-11-15T03:12:13.685Z,10.60
2022-11-15T03:13:50.744Z,10.60
2022-11-15T03:15:20.388Z,10.60
2022-11-15T03:17:03.313Z,10.60
2022-11-15T03:18:33.660Z,10.60
2022-11-15T03:19:57.928Z,10.60
2022-11-15T03:21:21.266Z,10.50
2022-11-15T03:22:45.310Z,10.50
2022-11-15T03:24:09.203Z,10.50
2022-11-15T03:25:31.126Z,10.50
2022-11-15T03:26:53.475Z,10.50
2022-11-15T03:28:23.534Z,10.50
2022-11-15T03:29:53.154Z,10.50
2022-11-15T03:31:35.252Z,10.50
2022-11-15T03:32:58.942Z,10.50
2022-11-15T03:34:31.448Z,10.50
2022-11-15T03:35:54.752Z,10.50
2022-11-15T03:37:18.394Z,10.50
2022-11-15T03:38:40.640Z,10.50
2022-11-15T03:40:02.575Z,10.50
2022-11-15T03:41:30.929Z,10.50
2022-11-15T03:43:08.217Z,10.50
2022-11-15T03:44:47.629Z,10.50
2022-11-15T03:46:24.295Z,10.50
2022-11-15T03:47:57.651Z,10.40
2022-11-15T03:49:25.952Z,10.30
2022-11-15T03:50:47.523Z,10.30
2022-11-15T03:52:08.495Z,10.20
2022-11-15T03:53:30.180Z,10.30
2022-11-15T03:54:56.535Z,10.30
2022-11-15T03:56:17.515Z,10.30
2022-11-15T03:57:38.800Z,10.30
2022-11-15T03:58:59.631Z,10.20
2022-11-15T04:00:20.454Z,10.20
2022-11-15T04:01:41.230Z,10.20
2022-11-15T04:03:01.985Z,10.20
2022-11-15T04:04:23.019Z,10.20
2022-11-15T04:05:44.961Z,10.20
2022-11-15T04:07:07.567Z,10.20
2022-11-15T04:08:29.790Z,10.30
2022-11-15T04:10:06.661Z,10.30
2022-11-15T04:11:27.578Z,10.30
2022-11-15T04:12:48.762Z,10.30
2022-11-15T04:14:09.653Z,10.30
2022-11-15T04:15:31.045Z,10.20
2022-11-15T04:16:51.943Z,10.20
2022-11-15T04:18:12.917Z,10.20
2022-11-15T04:19:52.371Z,10.10
2022-11-15T04:21:31.100Z,10.10
2022-11-15T04:23:14.428Z,10.10
2022-11-15T04:24:35.141Z,10.00
2022-11-15T04:25:57.997Z,10.10
2022-11-15T04:27:18.455Z,10.10
2022-11-15T04:29:02.188Z,10.10
2022-11-15T04:30:22.414Z,10.00
2022-11-15T04:31:43.031Z,10.10
2022-11-15T04:33:04.424Z,10.10
2022-11-15T04:34:25.434Z,10.10
2022-11-15T04:36:06.627Z,10.10
2022-11-15T04:37:27.285Z,10.10
2022-11-15T04:38:47.706Z,10.20
2022-11-15T04:40:09.450Z,10.20
2022-11-15T04:41:30.335Z,10.20
2022-11-15T04:42:51.093Z,10.20
2022-11-15T04:44:11.516Z,10.20
2022-11-15T04:45:32.618Z,10.20
2022-11-15T04:46:53.065Z,10.30
2022-11-15T04:48:14.083Z,10.30
2022-11-15T04:49:34.594Z,10.40
2022-11-15T04:50:55.121Z,10.40
2022-11-15T04:52:15.716Z,10.40
2022-11-15T04:53:36.691Z,10.40
2022-11-15T04:55:01.398Z,10.50
2022-11-15T04:56:25.911Z,10.50
2022-11-15T04:57:46.613Z,10.50
2022-11-15T04:59:07.371Z,10.50
2022-11-15T05:00:29.959Z,10.60
2022-11-15T05:01:50.531Z,10.60
2022-11-15T05:03:29.904Z,10.60
2022-11-15T05:04:50.992Z,10.60
2022-11-15T05:06:11.692Z,10.70
2022-11-15T05:07:32.620Z,10.70
2022-11-15T05:08:53.560Z,10.70
2022-11-15T05:10:14.253Z,10.80
2022-11-15T05:11:35.539Z,10.80
2022-11-15T05:12:56.206Z,10.80
2022-11-15T05:14:17.445Z,10.90
2022-11-15T05:15:38.291Z,10.90
2022-11-15T05:16:59.293Z,11.00
2022-11-15T05:18:23.495Z,11.00
2022-11-15T05:19:45.678Z,11.00
2022-11-15T05:21:14.289Z,11.00
2022-11-15T05:22:35.015Z,11.10
2022-11-15T05:23:55.564Z,11.10
2022-11-15T05:25:16.558Z,11.10
2022-11-15T05:26:37.148Z,11.10
2022-11-15T05:27:57.784Z,11.10
2022-11-15T05:29:18.340Z,11.10
2022-11-15T05:30:39.542Z,11.10
2022-11-15T05:32:01.081Z,11.10
2022-11-15T05:33:21.852Z,11.10
2022-11-15T05:34:43.011Z,11.10
2022-11-15T05:36:19.469Z,11.10
2022-11-15T05:37:40.330Z,11.10
2022-11-15T05:39:00.977Z,11.20
2022-11-15T05:40:22.382Z,11.20
2022-11-15T05:41:51.608Z,11.20
2022-11-15T05:43:12.535Z,11.10
2022-11-15T05:44:35.319Z,11.10
2022-11-15T05:45:56.322Z,11.10
2022-11-15T05:47:25.396Z,11.10
2022-11-15T05:48:50.176Z,11.10
2022-11-15T05:50:15.558Z,11.10
2022-11-15T05:51:36.458Z,11.10
2022-11-15T05:53:02.204Z,11.20
2022-11-15T05:54:26.549Z,11.20
2022-11-15T05:55:49.681Z,11.10
2022-11-15T05:57:10.817Z,11.10
2022-11-15T05:58:33.827Z,11.10
2022-11-15T05:59:56.416Z,11.10
2022-11-15T06:01:17.824Z,11.10
2022-11-15T06:02:38.676Z,11.10
2022-11-15T06:04:00.566Z,11.10
2022-11-15T06:05:21.949Z,11.10
2022-11-15T06:06:42.883Z,11.10
2022-11-15T06:08:04.096Z,11.10
2022-11-15T06:09:25.030Z,11.10
2022-11-15T06:10:46.230Z,11.20
2022-11-15T06:12:07.699Z,11.20
2022-11-15T06:13:28.493Z,11.20
2022-11-15T06:14:49.289Z,11.20
2022-11-15T06:16:10.348Z,11.30
2022-11-15T06:17:32.555Z,11.20
2022-11-15T06:18:53.481Z,11.20
2022-11-15T06:20:13.994Z,11.20
2022-11-15T06:21:34.890Z,11.20
2022-11-15T06:23:00.223Z,11.20
2022-11-15T06:24:20.689Z,11.20
2022-11-15T06:25:41.293Z,11.10
2022-11-15T06:27:01.903Z,11.10
2022-11-15T06:28:22.863Z,11.10
2022-11-15T06:29:43.583Z,11.00
2022-11-15T06:31:10.351Z,11.00
2022-11-15T06:32:31.691Z,10.90
2022-11-15T06:33:52.756Z,10.90
2022-11-15T06:35:14.170Z,10.90
2022-11-15T06:36:38.459Z,10.90
2022-11-15T06:38:05.097Z,11.00
2022-11-15T06:39:26.707Z,11.00
2022-11-15T06:40:47.751Z,11.00
2022-11-15T06:42:10.226Z,11.00
2022-11-15T06:43:31.249Z,10.90
2022-11-15T06:44:52.051Z,10.90
2022-11-15T06:46:13.101Z,10.90
2022-11-15T06:47:34.120Z,10.90
2022-11-15T06:48:54.963Z,10.90
2022-11-15T06:50:15.768Z,10.90
2022-11-15T06:51:36.357Z,11.00
2022-11-15T06:53:01.275Z,11.00
2022-11-15T06:54:22.174Z,11.00
2022-11-15T06:55:45.793Z,11.00
2022-11-15T06:57:07.284Z,11.10
2022-11-15T06:58:28.380Z,11.10
2022-11-15T06:59:48.794Z,11.10
2022-11-15T07:01:11.937Z,11.10
2022-11-15T07:02:32.668Z,11.20
2022-11-15T07:03:53.457Z,11.20
2022-11-15T07:05:15.121Z,11.20
2022-11-15T07:06:35.676Z,11.20
2022-11-15T07:07:58.110Z,11.30
2022-11-15T07:09:18.756Z,11.30
2022-11-15T07:10:39.791Z,11.40
2022-11-15T07:12:06.245Z,11.40
2022-11-15T07:13:29.964Z,11.50
2022-11-15T07:14:50.906Z,11.60
2022-11-15T07:16:12.163Z,11.70
2022-11-15T07:17:33.413Z,11.70
2022-11-15T07:18:54.344Z,11.80
2022-11-15T07:20:16.097Z,11.90
2022-11-15T07:21:37.773Z,12.00
2022-11-15T07:23:07.281Z,12.20
2022-11-15T07:24:28.361Z,12.30
2022-11-15T07:25:49.152Z,12.40
2022-11-15T07:27:10.561Z,12.40
2022-11-15T07:28:31.210Z,12.40
2022-11-15T07:29:52.440Z,12.50
2022-11-15T07:31:12.962Z,12.50
2022-11-15T07:32:33.990Z,12.60
2022-11-15T07:33:55.080Z,12.70
2022-11-15T07:35:15.811Z,12.60
2022-11-15T07:36:38.467Z,12.60
2022-11-15T07:38:02.090Z,12.60
2022-11-15T07:39:22.624Z,12.60
2022-11-15T07:40:43.251Z,12.60
2022-11-15T07:42:23.024Z,12.60
2022-11-15T07:43:43.992Z,12.60
2022-11-15T07:45:05.109Z,12.50
2022-11-15T07:46:25.784Z,12.60
2022-11-15T07:47:47.923Z,12.60
2022-11-15T07:49:08.634Z,12.70
2022-11-15T07:50:31.035Z,12.70
2022-11-15T07:51:51.677Z,12.70
2022-11-15T07:53:12.511Z,12.70
2022-11-15T07:54:33.526Z,12.70
2022-11-15T07:55:54.843Z,12.70
2022-11-15T07:57:15.702Z,12.70
2022-11-15T07:58:36.917Z,12.70
2022-11-15T07:59:57.483Z,12.80
2022-11-15T08:01:18.260Z,12.90
2022-11-15T08:02:39.361Z,12.90
2022-11-15T08:03:59.944Z,13.10
2022-11-15T08:05:20.400Z,13.10
2022-11-15T08:06:41.419Z,13.20
2022-11-15T08:08:02.580Z,13.40
2022-11-15T08:09:23.016Z,13.50
2022-11-15T08:10:43.980Z,13.70
2022-11-15T08:12:04.827Z,13.80
2022-11-15T08:13:25.765Z,14.10
2022-11-15T08:14:46.729Z,14.40
2022-11-15T08:16:08.483Z,14.70
2022-11-15T08:17:33.074Z,15.00
2022-11-15T08:18:53.617Z,15.20
2022-11-15T08:20:14.733Z,15.60
2022-11-15T08:21:36.254Z,15.90
2022-11-15T08:22:58.206Z,16.30
2022-11-15T08:24:19.142Z,16.60
2022-11-15T08:25:40.552Z,16.80
2022-11-15T08:27:01.497Z,17.00
2022-11-15T08:28:23.699Z,17.30
2022-11-15T08:29:51.822Z,17.40
2022-11-15T08:31:19.326Z,17.50
2022-11-15T08:32:40.258Z,17.50
2022-11-15T08:34:01.930Z,17.70
2022-11-15T08:35:26.297Z,18.20
2022-11-15T08:36:49.794Z,18.50
2022-11-15T08:38:10.713Z,18.70
2022-11-15T08:39:31.304Z,18.80
2022-11-15T08:41:02.383Z,18.70
2022-11-15T08:42:23.314Z,18.30
2022-11-15T08:43:44.033Z,18.00
2022-11-15T08:45:05.202Z,17.60
2022-11-15T08:46:26.424Z,17.30
2022-11-15T08:47:52.776Z,17.00
2022-11-15T08:49:14.832Z,17.00
2022-11-15T08:50:35.215Z,17.00
2022-11-15T08:51:56.070Z,17.00
2022-11-15T08:53:16.624Z,16.90
2022-11-15T08:54:37.694Z,16.90
2022-11-15T08:55:58.302Z,17.10
2022-11-15T08:57:19.518Z,17.20
2022-11-15T08:58:40.582Z,17.50
2022-11-15T09:00:01.335Z,18.00
2022-11-15T09:01:23.264Z,18.30
2022-11-15T09:02:43.760Z,18.50
2022-11-15T09:04:05.170Z,18.60
2022-11-15T09:05:27.547Z,18.50
2022-11-15T09:06:48.339Z,18.50
2022-11-15T09:08:40.391Z,18.70
2022-11-15T09:09:50.875Z,18.60
2022-11-15T09:11:11.607Z,18.70
2022-11-15T09:12:33.872Z,19.00
2022-11-15T09:13:56.076Z,19.10
2022-11-15T09:15:17.590Z,19.20
2022-11-15T09:16:41.511Z,19.30
2022-11-15T09:18:09.987Z,19.40
2022-11-15T09:19:33.543Z,19.50
2022-11-15T09:21:01.899Z,19.50
2022-11-15T09:22:26.168Z,19.30
2022-11-15T09:23:46.880Z,19.30
2022-11-15T09:25:10.915Z,19.20
2022-11-15T09:26:32.504Z,19.00
2022-11-15T09:27:53.287Z,18.90
2022-11-15T09:29:14.383Z,18.80
2022-11-15T09:30:34.982Z,18.70
2022-11-15T09:31:55.938Z,18.80
2022-11-15T09:33:16.264Z,18.90
2022-11-15T09:34:37.127Z,19.10
2022-11-15T09:36:04.198Z,19.20
2022-11-15T09:37:24.768Z,19.10
2022-11-15T09:38:46.116Z,19.20
2022-11-15T09:40:12.799Z,19.30
2022-11-15T09:41:48.520Z,19.40
2022-11-15T09:43:18.441Z,19.30
2022-11-15T09:44:57.159Z,19.40
2022-11-15T09:46:29.314Z,19.40
2022-11-15T09:48:01.936Z,19.40
2022-11-15T09:49:23.261Z,19.30
2022-11-15T09:51:02.141Z,19.20
2022-11-15T09:52:08.486Z,19.20
2022-11-15T09:53:50.732Z,19.20
2022-11-15T09:54:53.728Z,19.10
2022-11-15T09:56:01.619Z,19.00
2022-11-15T09:57:32.456Z,18.90
2022-11-15T09:59:14.936Z,18.80
2022-11-15T10:00:48.015Z,18.70
2022-11-15T10:02:01.224Z,18.80
2022-11-15T10:03:08.440Z,18.90
2022-11-15T10:04:12.127Z,19.10
2022-11-15T10:05:24.186Z,19.30
2022-11-15T10:06:28.010Z,19.20
2022-11-15T10:07:40.678Z,19.20
2022-11-15T10:08:56.802Z,19.30
2022-11-15T10:10:04.387Z,19.50
2022-11-15T10:12:35.462Z,19.80
2022-11-15T10:13:42.966Z,19.80
2022-11-15T10:14:53.172Z,19.90
2022-11-15T10:16:10.186Z,20.00
2022-11-15T10:17:37.405Z,20.20
2022-11-15T10:19:17.069Z,20.30
2022-11-15T10:20:25.076Z,20.50
2022-11-15T10:21:54.189Z,20.60
2022-11-15T10:23:01.326Z,20.80
2022-11-15T10:24:11.313Z,20.90
2022-11-15T10:25:28.402Z,21.10
2022-11-15T10:26:31.473Z,21.10
2022-11-15T10:27:33.843Z,21.20
2022-11-15T10:28:38.438Z,21.20
2022-11-15T10:29:46.288Z,21.20
2022-11-15T10:30:54.122Z,21.10
2022-11-15T10:32:06.778Z,21.00
2022-11-15T10:33:30.818Z,20.90
2022-11-15T10:34:36.941Z,20.80
2022-11-15T10:35:39.253Z,20.80
2022-11-15T10:37:03.621Z,20.80
2022-11-15T10:38:11.243Z,20.70
2022-11-15T10:39:16.478Z,20.60
2022-11-15T10:40:24.085Z,20.60
2022-11-15T10:41:28.927Z,20.50
2022-11-15T10:42:31.239Z,20.40
2022-11-15T10:43:33.641Z,20.40
2022-11-15T10:44:45.287Z,20.20
2022-11-15T10:45:48.440Z,20.10
2022-11-15T10:46:56.432Z,20.00
2022-11-15T10:48:18.743Z,20.00
2022-11-15T10:49:22.507Z,19.90
2022-11-15T10:50:33.779Z,19.80
2022-11-15T10:51:49.836Z,19.70
2022-11-15T10:52:52.175Z,19.50
2022-11-15T10:53:54.390Z,19.30
2022-11-15T10:55:22.730Z,19.20
2022-11-15T10:56:27.352Z,19.10
2022-11-15T10:57:39.904Z,19.10
2022-11-15T10:58:51.636Z,19.00
2022-11-15T11:00:10.628Z,18.80
2022-11-15T11:01:18.638Z,18.80
2022-11-15T11:02:37.048Z,18.70
2022-11-15T11:03:40.668Z,18.60
2022-11-15T11:04:52.783Z,18.60
2022-11-15T11:06:06.990Z,18.60
2022-11-15T11:07:24.441Z,18.50
2022-11-15T11:08:36.041Z,18.40
2022-11-15T11:09:40.566Z,18.40
2022-11-15T11:11:03.082Z,18.40
2022-11-15T11:12:11.102Z,18.40
2022-11-15T11:13:26.385Z,18.40
2022-11-15T11:14:35.674Z,18.40
2022-11-15T11:16:16.050Z,18.40
2022-11-15T11:17:59.270Z,18.40
2022-11-15T11:19:40.054Z,18.30
2022-11-15T11:23:38.448Z,18.10
2022-11-15T11:24:54.979Z,18.00
2022-11-15T11:26:23.019Z,17.90
2022-11-15T11:27:41.905Z,17.90
2022-11-15T11:28:53.062Z,17.90
2022-11-15T11:30:38.158Z,17.90
2022-11-15T11:32:07.496Z,17.90
2022-11-15T11:33:23.032Z,17.80
2022-11-15T11:34:43.024Z,17.80
2022-11-15T11:36:29.308Z,17.70
2022-11-15T11:37:52.338Z,17.60
2022-11-15T11:39:21.783Z,17.70
2022-11-15T11:40:31.336Z,17.60
2022-11-15T11:41:50.419Z,17.70
2022-11-15T11:43:19.675Z,17.70
2022-11-15T11:44:36.470Z,17.70
2022-11-15T11:45:59.560Z,17.70
2022-11-15T11:47:36.768Z,17.70
2022-11-15T11:48:43.270Z,17.80
2022-11-15T11:49:52.327Z,17.90
2022-11-15T11:51:01.453Z,18.00
2022-11-15T11:52:10.011Z,18.10
2022-11-15T11:53:26.892Z,18.10
2022-11-15T11:55:13.012Z,18.20
2022-11-15T11:56:30.312Z,18.20
2022-11-15T11:57:43.264Z,18.30
2022-11-15T11:58:50.089Z,18.50
2022-11-15T12:00:01.947Z,18.60
2022-11-15T12:01:28.014Z,18.60
2022-11-15T12:02:40.286Z,18.70
2022-11-15T12:04:04.890Z,18.70
2022-11-15T12:05:32.928Z,18.80
2022-11-15T12:06:41.848Z,18.90
2022-11-15T12:07:49.549Z,19.00
2022-11-15T12:09:18.111Z,18.90
2022-11-15T12:10:21.044Z,18.90
2022-11-15T12:12:03.665Z,18.80
2022-11-15T12:13:22.570Z,18.70
2022-11-15T12:14:37.501Z,18.80
2022-11-15T12:16:14.671Z,18.90
2022-11-15T12:17:22.685Z,19.20
2022-11-15T12:18:24.902Z,19.40
2022-11-15T12:19:27.888Z,19.70
2022-11-15T12:20:40.494Z,19.90
2022-11-15T12:21:55.675Z,20.20
2022-11-15T12:23:04.843Z,20.40
2022-11-15T12:24:31.969Z,20.60
2022-11-15T12:25:57.222Z,20.80
2022-11-15T12:27:15.167Z,20.90
2022-11-15T12:28:31.735Z,20.90
2022-11-15T12:29:42.212Z,21.00
2022-11-15T12:30:44.716Z,21.10
2022-11-15T12:31:56.722Z,21.30
2022-11-15T12:33:01.479Z,21.30
2022-11-15T12:34:16.911Z,21.40
2022-11-15T12:35:43.909Z,21.30
2022-11-15T12:36:46.148Z,21.10
2022-11-15T12:37:53.111Z,20.90
2022-11-15T12:39:12.805Z,20.70
2022-11-15T12:40:20.961Z,20.60
2022-11-15T12:41:31.051Z,20.50
2022-11-15T12:42:58.064Z,20.30
2022-11-15T12:44:00.362Z,20.30
2022-11-15T12:45:02.670Z,20.20
2022-11-15T12:46:06.923Z,20.20
2022-11-15T12:47:12.120Z,20.30
2022-11-15T12:48:17.029Z,20.30
2022-11-15T12:49:24.964Z,20.20
2022-11-15T12:51:02.638Z,20.20
2022-11-15T12:52:07.870Z,20.20
2022-11-15T12:53:25.467Z,20.20
2022-11-15T12:54:30.088Z,20.20
2022-11-15T12:55:33.911Z,20.20
2022-11-15T12:56:36.040Z,20.20
2022-11-15T12:57:40.453Z,20.10
2022-11-15T12:58:47.427Z,20.00
2022-11-15T13:00:00.423Z,19.90
2022-11-15T13:01:02.743Z,19.90
2022-11-15T13:02:37.180Z,19.90
2022-11-15T13:04:18.014Z,20.00
2022-11-15T13:05:20.496Z,20.10
2022-11-15T13:06:40.405Z,20.10
2022-11-15T13:07:42.534Z,20.20
2022-11-15T13:08:48.711Z,20.30
2022-11-15T13:09:53.829Z,20.40
2022-11-15T13:11:47.632Z,20.60
2022-11-15T13:12:52.503Z,20.70
2022-11-15T13:13:54.771Z,20.70
2022-11-15T13:15:41.111Z,20.60
2022-11-15T13:16:45.741Z,20.60
2022-11-15T13:17:52.804Z,20.70
2022-11-15T13:18:55.747Z,20.60
2022-11-15T13:20:01.376Z,20.70
2022-11-15T13:21:25.439Z,20.60
2022-11-15T13:22:47.955Z,20.60
2022-11-15T13:23:56.549Z,20.50
2022-11-15T13:24:59.789Z,20.20
2022-11-15T13:26:11.403Z,20.20
2022-11-15T13:27:20.535Z,20.10
2022-11-15T13:28:33.742Z,20.00
2022-11-15T13:29:36.617Z,19.90
2022-11-15T13:30:39.185Z,19.80
2022-11-15T13:31:46.268Z,19.80
2022-11-15T13:32:49.215Z,19.80
2022-11-15T13:33:51.803Z,19.80
2022-11-15T13:34:54.102Z,19.70
2022-11-15T13:35:59.950Z,19.60
2022-11-15T13:37:03.162Z,19.50
2022-11-15T13:38:06.457Z,19.40
2022-11-15T13:39:30.367Z,19.30
2022-11-15T13:40:38.877Z,19.10
2022-11-15T13:41:51.148Z,18.90
2022-11-15T13:42:54.245Z,18.90
2022-11-15T13:43:58.159Z,18.70
2022-11-15T13:45:02.647Z,18.60
2022-11-15T13:46:12.200Z,18.50
2022-11-15T13:47:16.134Z,18.30
2022-11-15T13:48:18.400Z,18.20
2022-11-15T13:49:31.512Z,18.10
2022-11-15T13:50:35.606Z,18.10
2022-11-15T13:51:44.437Z,18.00
2022-11-15T13:52:49.979Z,18.00
2022-11-15T13:54:03.567Z,18.00
2022-11-15T13:55:16.709Z,18.00
2022-11-15T13:56:21.164Z,18.00
2022-11-15T13:57:28.728Z,18.00
2022-11-15T13:58:31.583Z,17.90
2022-11-15T13:59:38.039Z,17.90
2022-11-15T14:00:44.468Z,17.90
2022-11-15T14:01:46.991Z,17.80
2022-11-15T14:02:49.544Z,17.80
2022-11-15T14:03:58.505Z,17.70
2022-11-15T14:05:19.536Z,17.70
2022-11-15T14:06:24.828Z,17.60
2022-11-15T14:07:32.384Z,17.60
2022-11-15T14:08:36.637Z,17.60
2022-11-15T14:09:39.861Z,17.60
2022-11-15T14:10:42.253Z,17.60
2022-11-15T14:11:55.306Z,17.50
2022-11-15T14:12:57.929Z,17.50
2022-11-15T14:14:24.446Z,17.50
2022-11-15T14:15:36.424Z,17.40
2022-11-15T14:16:51.096Z,17.40
2022-11-15T14:17:53.303Z,17.30
2022-11-15T14:19:06.169Z,17.30
2022-11-15T14:20:40.914Z,17.30
2022-11-15T14:22:12.624Z,17.20
2022-11-15T14:23:28.106Z,17.20
2022-11-15T14:24:34.220Z,17.10
2022-11-15T14:25:36.903Z,17.10
2022-11-15T14:26:40.385Z,17.10
2022-11-15T14:27:44.473Z,17.00
2022-11-15T14:28:46.755Z,17.00
2022-11-15T14:29:49.960Z,17.00
2022-11-15T14:30:57.476Z,16.90
2022-11-15T14:32:29.814Z,16.90
2022-11-15T14:33:40.109Z,16.90
2022-11-15T14:34:42.556Z,16.90
2022-11-15T14:35:44.752Z,16.80
2022-11-15T14:36:47.045Z,16.80
2022-11-15T14:37:49.433Z,16.80
2022-11-15T14:38:55.290Z,16.80
2022-11-15T14:39:57.424Z,16.80
2022-11-15T14:40:59.512Z,16.80
2022-11-15T14:42:01.650Z,16.70
2022-11-15T14:43:03.877Z,16.80
2022-11-15T14:44:07.560Z,16.80
2022-11-15T14:45:21.448Z,16.80
2022-11-15T14:46:23.648Z,16.70
2022-11-15T14:47:25.740Z,16.70
2022-11-15T14:48:28.143Z,16.70
2022-11-15T14:49:30.281Z,16.70
2022-11-15T14:50:34.122Z,16.70
2022-11-15T14:51:36.641Z,16.70
2022-11-15T14:52:39.478Z,16.70
2022-11-15T14:53:42.392Z,16.60
2022-11-15T14:54:44.484Z,16.60
2022-11-15T14:55:46.723Z,16.60
2022-11-15T14:56:48.905Z,16.60
2022-11-15T14:57:51.483Z,16.60
2022-11-15T14:58:53.673Z,16.50
2022-11-15T14:59:55.901Z,16.50
2022-11-15T15:00:58.116Z,16.50
2022-11-15T15:02:00.584Z,16.50
2022-11-15T15:03:04.332Z,16.40
2022-11-15T15:04:06.444Z,16.40
2022-11-15T15:05:25.061Z,16.40
2022-11-15T15:06:27.693Z,16.40
2022-11-15T15:07:30.092Z,16.40
2022-11-15T15:08:32.686Z,16.30
2022-11-15T15:09:35.020Z,16.30
2022-11-15T15:10:46.203Z,16.30
2022-11-15T15:11:48.299Z,16.30
2022-11-15T15:12:50.993Z,16.30
2022-11-15T15:13:53.778Z,16.30
2022-11-15T15:14:56.467Z,16.30
2022-11-15T15:15:58.610Z,16.20
2022-11-15T15:17:00.707Z,16.20
2022-11-15T15:18:03.938Z,16.20
2022-11-15T15:19:06.071Z,16.20
2022-11-15T15:20:08.911Z,16.10
2022-11-15T15:21:25.782Z,16.10
2022-11-15T15:22:30.600Z,16.10
2022-11-15T15:23:32.843Z,16.10
2022-11-15T15:24:34.967Z,16.00
2022-11-15T15:25:37.167Z,16.00
2022-11-15T15:26:40.291Z,16.00
2022-11-15T15:27:42.382Z,16.00
2022-11-15T15:28:44.613Z,16.00
2022-11-15T15:29:46.739Z,15.90
2022-11-15T15:30:50.541Z,15.90
2022-11-15T15:31:52.985Z,15.80
2022-11-15T15:32:55.149Z,15.90
2022-11-15T15:33:57.340Z,15.80
2022-11-15T15:35:00.389Z,15.80
2022-11-15T15:36:05.870Z,15.80
2022-11-15T15:37:26.412Z,15.70
2022-11-15T15:38:28.870Z,15.70
2022-11-15T15:39:31.105Z,15.70
2022-11-15T15:40:34.537Z,15.70
2022-11-15T15:41:36.885Z,15.70
2022-11-15T15:42:39.160Z,15.70
2022-11-15T15:43:41.842Z,15.70
2022-11-15T15:44:44.115Z,15.60
2022-11-15T15:45:46.431Z,15.60
2022-11-15T15:46:48.819Z,15.50
2022-11-15T15:47:53.258Z,15.50
2022-11-15T15:48:58.616Z,15.50
2022-11-15T15:50:01.219Z,15.50
2022-11-15T15:51:17.076Z,15.50
2022-11-15T15:52:22.368Z,15.40
2022-11-15T15:53:24.459Z,15.40
2022-11-15T15:54:26.711Z,15.40
2022-11-15T15:55:29.739Z,15.40
2022-11-15T15:56:31.901Z,15.40
2022-11-15T15:57:34.099Z,15.30
2022-11-15T15:58:36.958Z,15.30
2022-11-15T15:59:39.244Z,15.30
2022-11-15T16:00:41.737Z,15.30
2022-11-15T16:01:44.009Z,15.20
2022-11-15T16:02:46.896Z,15.20
2022-11-15T16:03:49.288Z,15.20
2022-11-15T16:04:51.456Z,15.20
2022-11-15T16:05:53.667Z,15.20
2022-11-15T16:07:04.062Z,15.10
2022-11-15T16:08:06.489Z,15.10
2022-11-15T16:09:16.052Z,15.10
2022-11-15T16:10:27.301Z,15.00
2022-11-15T16:11:29.997Z,15.00
2022-11-15T16:12:34.951Z,15.00
2022-11-15T16:13:37.278Z,15.00
2022-11-15T16:14:39.605Z,15.00
2022-11-15T16:15:43.743Z,14.90
2022-11-15T16:16:46.335Z,14.90
2022-11-15T16:17:55.976Z,14.80
2022-11-15T16:18:58.078Z,14.80
2022-11-15T16:20:07.228Z,14.80
2022-11-15T16:21:12.038Z,14.80
2022-11-15T16:22:14.155Z,14.80
2022-11-15T16:23:19.033Z,14.80
2022-11-15T16:24:22.196Z,14.80
2022-11-15T16:25:24.829Z,14.70
2022-11-15T16:26:29.125Z,14.70
2022-11-15T16:27:31.401Z,14.60
2022-11-15T16:28:34.531Z,14.60
2022-11-15T16:29:45.479Z,14.60
2022-11-15T16:31:16.519Z,14.60
2022-11-15T16:32:19.646Z,14.50
2022-11-15T16:33:22.222Z,14.50
2022-11-15T16:34:29.992Z,14.50
2022-11-15T16:35:33.177Z,14.50
2022-11-15T16:36:36.666Z,14.50
2022-11-15T16:37:40.917Z,14.40
2022-11-15T16:38:43.132Z,14.40
2022-11-15T16:39:45.214Z,14.40
2022-11-15T16:40:47.685Z,14.40
2022-11-15T16:41:52.476Z,14.30
2022-11-15T16:42:56.704Z,14.30
2022-11-15T16:43:58.887Z,14.30
2022-11-15T16:45:01.193Z,14.30
2022-11-15T16:46:14.540Z,14.20